CYLW/YLW METAR and TAF weather

Enter ICAO airport designator
Station Type Date Time Source
CYLW METAR 2021/05/14 23:00 UTC NOAA

CYLW 142300Z AUTO 35014G19KT 9SM FEW140 25/04 A2998 RMK SLP155 DENSITY ALT 2800FT


Station Type Date Time Source
CYLW Decoded METAR 2021/05/14 23:00 UTC NOAA

Kelowna Airport, Canada (CYLW) 49-58N 119-23W 430M
May 14, 2021 - 07:00 PM EDT / 2021.05.14 2300 UTC
Wind: from the N (350 degrees) at 16 MPH (14 KT) gusting to 22 MPH (19 KT):0
Visibility: 9 mile(s):0
Sky conditions: mostly clear
Temperature: 77 F (25 C)
Dew Point: 39 F (4 C)
Relative Humidity: 25%
Pressure (altimeter): 29.98 in. Hg (1015 hPa)
ob: CYLW 142300Z AUTO 35014G19KT 9SM FEW140 25/04 A2998 RMK SLP155 DENSITY ALT 2800FT
cycle: 23

Station Type Date Time Source
CYLW TAF 2021/05/14 19:39 UTC NOAA

TAF CYLW 141838Z 1419/1507 VRB03KT P6SM FEW080
FM142200 34010G20KT P6SM SCT080
TEMPO 1422/1503 P6SM VCSH BKN070CB
FM150300 35005KT P6SM SCT080
TEMPO 1503/1507 BKN080
RMK FCST BASED ON AUTO OBS. NXT FCST BY 150100Z

Example: see airport list